createdAt,value
2019-02-06T00:01:39.936Z,93.30
2019-02-06T00:04:07.759Z,93.30
2019-02-06T00:06:35.843Z,93.10
2019-02-06T00:09:12.704Z,93.10
2019-02-06T00:11:40.490Z,93.10
2019-02-06T00:14:09.254Z,93.00
2019-02-06T00:16:37.059Z,93.00
2019-02-06T00:19:05.015Z,92.90
2019-02-06T00:21:32.678Z,93.00
2019-02-06T00:24:04.170Z,92.90
2019-02-06T00:26:31.739Z,93.20
2019-02-06T00:28:59.259Z,93.00
2019-02-06T00:31:26.713Z,92.80
2019-02-06T00:33:54.262Z,92.80
2019-02-06T00:36:22.140Z,92.80
2019-02-06T00:38:50.175Z,92.70
2019-02-06T00:41:17.768Z,93.00
2019-02-06T00:43:45.369Z,92.90
2019-02-06T00:46:14.017Z,92.90
2019-02-06T00:48:41.643Z,92.90
2019-02-06T00:51:10.317Z,92.90
2019-02-06T00:53:37.900Z,92.70
2019-02-06T00:56:05.821Z,92.80
2019-02-06T00:58:33.585Z,92.70
2019-02-06T01:01:01.050Z,92.60
2019-02-06T01:03:28.754Z,92.80
2019-02-06T01:05:56.508Z,92.70
2019-02-06T01:08:24.260Z,92.60
2019-02-06T01:10:52.809Z,92.50
2019-02-06T01:13:20.829Z,92.40
2019-02-06T01:15:48.408Z,92.40
2019-02-06T01:18:16.687Z,92.50
2019-02-06T01:20:44.407Z,92.50
2019-02-06T01:23:16.061Z,92.80
2019-02-06T01:25:43.338Z,92.60
2019-02-06T01:28:10.901Z,92.50
2019-02-06T01:30:50.893Z,92.50
2019-02-06T01:33:18.472Z,92.60
2019-02-06T01:35:49.910Z,92.50
2019-02-06T01:38:17.188Z,92.50
2019-02-06T01:40:45.117Z,92.60
2019-02-06T01:43:12.531Z,92.50
2019-02-06T01:45:40.469Z,92.50
2019-02-06T01:48:08.239Z,92.50
2019-02-06T01:50:36.077Z,92.50
2019-02-06T01:53:03.827Z,92.40
2019-02-06T01:55:31.487Z,92.40
2019-02-06T01:57:59.130Z,92.30
2019-02-06T02:00:26.852Z,92.20
2019-02-06T02:02:54.834Z,92.30
2019-02-06T02:05:23.543Z,92.60
2019-02-06T02:07:51.528Z,92.50
2019-02-06T02:10:20.560Z,92.40
2019-02-06T02:12:49.364Z,92.30
2019-02-06T02:15:17.364Z,92.20
2019-02-06T02:17:46.092Z,92.20
2019-02-06T02:20:17.110Z,92.20
2019-02-06T02:22:44.678Z,92.20
2019-02-06T02:25:12.548Z,92.30
2019-02-06T02:27:40.230Z,92.40
2019-02-06T02:30:11.185Z,92.30
2019-02-06T02:32:38.902Z,92.20
2019-02-06T02:35:07.071Z,92.10
2019-02-06T02:37:34.699Z,92.10
2019-02-06T02:40:02.744Z,92.10
2019-02-06T02:42:30.626Z,92.40
2019-02-06T02:44:58.185Z,92.10
2019-02-06T02:47:25.707Z,92.10
2019-02-06T02:49:53.394Z,92.10
2019-02-06T02:52:21.376Z,92.00
2019-02-06T02:54:49.191Z,92.20
2019-02-06T02:57:16.927Z,92.10
2019-02-06T02:59:44.408Z,92.20
2019-02-06T03:02:38.834Z,92.20
2019-02-06T03:05:11.695Z,92.20
2019-02-06T03:07:40.301Z,92.30
2019-02-06T03:10:09.229Z,92.10
2019-02-06T03:12:37.097Z,92.20
2019-02-06T03:15:05.738Z,92.30
2019-02-06T03:17:33.281Z,92.20
2019-02-06T03:20:00.874Z,92.20
2019-02-06T03:22:28.581Z,92.30
2019-02-06T03:24:56.244Z,92.20
2019-02-06T03:27:23.829Z,92.30
2019-02-06T03:29:51.472Z,92.40
2019-02-06T03:32:18.978Z,92.40
2019-02-06T03:34:46.657Z,92.40
2019-02-06T03:37:14.290Z,92.60
2019-02-06T03:39:42.112Z,92.20
2019-02-06T03:42:10.119Z,92.30
2019-02-06T03:44:37.924Z,92.30
2019-02-06T03:47:05.499Z,92.20
2019-02-06T03:49:33.112Z,92.20
2019-02-06T03:52:00.802Z,92.10
2019-02-06T03:54:28.694Z,92.00
2019-02-06T03:56:56.389Z,92.00
2019-02-06T03:59:26.045Z,92.00
2019-02-06T04:01:53.876Z,92.00
2019-02-06T04:04:21.637Z,92.10
2019-02-06T04:06:56.438Z,92.10
2019-02-06T04:09:19.099Z,92.10
2019-02-06T04:11:46.948Z,92.10
2019-02-06T04:14:14.692Z,92.10
2019-02-06T04:16:42.455Z,92.00
2019-02-06T04:19:10.204Z,92.10
2019-02-06T04:21:38.038Z,92.10
2019-02-06T04:24:05.680Z,92.00
2019-02-06T04:26:33.157Z,92.00
2019-02-06T04:29:01.099Z,91.90
2019-02-06T04:31:28.582Z,91.80
2019-02-06T04:33:57.213Z,91.70
2019-02-06T04:36:24.929Z,91.80
2019-02-06T04:38:52.473Z,91.70
2019-02-06T04:41:19.999Z,91.70
2019-02-06T04:43:47.864Z,91.70
2019-02-06T04:46:19.051Z,91.80
2019-02-06T04:48:46.683Z,91.80
2019-02-06T04:51:14.445Z,91.80
2019-02-06T04:53:41.990Z,91.80
2019-02-06T04:56:09.705Z,91.70
2019-02-06T04:58:37.254Z,91.70
2019-02-06T05:01:04.945Z,91.80
2019-02-06T05:03:32.870Z,91.70
2019-02-06T05:06:00.268Z,91.70
2019-02-06T05:08:28.098Z,91.60
2019-02-06T05:10:55.756Z,91.80
2019-02-06T05:13:23.152Z,91.60
2019-02-06T05:15:50.789Z,91.50
2019-02-06T05:18:18.526Z,91.60
2019-02-06T05:20:46.130Z,91.60
2019-02-06T05:23:13.898Z,91.70
2019-02-06T05:25:42.201Z,91.70
2019-02-06T05:28:11.747Z,91.60
2019-02-06T05:30:39.408Z,91.70
2019-02-06T05:33:06.941Z,91.60
2019-02-06T05:35:34.625Z,91.70
2019-02-06T05:38:02.329Z,91.80
2019-02-06T05:40:30.159Z,91.80
2019-02-06T05:42:57.931Z,91.80
2019-02-06T05:45:25.614Z,91.80
2019-02-06T05:47:53.155Z,91.80
2019-02-06T05:50:20.799Z,91.90
2019-02-06T05:52:48.562Z,91.90
2019-02-06T05:55:16.777Z,91.80
2019-02-06T05:57:45.049Z,91.80
2019-02-06T06:00:17.628Z,91.90
2019-02-06T06:02:45.344Z,91.90
2019-02-06T06:05:13.737Z,92.10
2019-02-06T06:07:45.176Z,92.00
2019-02-06T06:10:14.015Z,92.00
2019-02-06T06:12:41.845Z,92.00
2019-02-06T06:15:12.773Z,92.20
2019-02-06T06:17:42.397Z,92.00
2019-02-06T06:20:11.073Z,92.10
2019-02-06T06:22:38.736Z,92.10
2019-02-06T06:25:07.548Z,92.00
2019-02-06T06:27:35.292Z,92.00
2019-02-06T06:30:06.691Z,92.00
2019-02-06T06:32:34.315Z,92.00
2019-02-06T06:35:02.203Z,92.00
2019-02-06T06:37:29.677Z,92.00
2019-02-06T06:39:57.139Z,92.10
2019-02-06T06:42:24.789Z,92.20
2019-02-06T06:44:52.405Z,92.10
2019-02-06T06:47:20.151Z,92.10
2019-02-06T06:49:47.574Z,92.00
2019-02-06T06:52:14.961Z,91.90
2019-02-06T06:54:42.424Z,91.80
2019-02-06T06:57:12.275Z,91.70
2019-02-06T06:59:39.425Z,91.60
2019-02-06T07:02:07.102Z,91.60
2019-02-06T07:04:34.776Z,91.50
2019-02-06T07:07:02.292Z,91.50
2019-02-06T07:09:29.828Z,91.60
2019-02-06T07:11:57.556Z,91.40
2019-02-06T07:14:24.919Z,91.30
2019-02-06T07:16:52.612Z,91.20
2019-02-06T07:19:19.929Z,91.10
2019-02-06T07:21:47.706Z,91.10
2019-02-06T07:24:15.205Z,91.10
2019-02-06T07:26:42.983Z,91.10
2019-02-06T07:29:10.720Z,90.90
2019-02-06T07:31:38.611Z,90.80
2019-02-06T07:34:08.921Z,90.60
2019-02-06T07:36:37.893Z,90.50
2019-02-06T07:39:08.853Z,90.40
2019-02-06T07:41:36.985Z,90.20
2019-02-06T07:44:06.947Z,90.10
2019-02-06T07:46:37.111Z,90.00
2019-02-06T07:49:14.878Z,90.00
2019-02-06T07:51:43.324Z,89.70
2019-02-06T07:54:13.503Z,89.60
2019-02-06T07:56:41.028Z,89.40
2019-02-06T07:59:09.680Z,89.20
2019-02-06T08:01:37.968Z,89.30
2019-02-06T08:04:05.643Z,89.20
2019-02-06T08:06:35.511Z,88.70
2019-02-06T08:09:10.427Z,88.50
2019-02-06T08:11:38.050Z,88.10
2019-02-06T08:14:09.294Z,88.10
2019-02-06T08:16:40.167Z,88.40
2019-02-06T08:19:08.311Z,87.50
2019-02-06T08:21:41.934Z,87.30
2019-02-06T08:24:11.095Z,86.60
2019-02-06T08:26:40.108Z,86.40
2019-02-06T08:29:07.734Z,86.20
2019-02-06T08:31:38.102Z,86.30
2019-02-06T08:34:06.007Z,85.90
2019-02-06T08:36:35.874Z,85.50
2019-02-06T08:39:07.840Z,85.70
2019-02-06T08:41:37.465Z,85.50
2019-02-06T08:44:06.361Z,85.90
2019-02-06T08:46:36.263Z,85.20
2019-02-06T08:49:07.282Z,84.80
2019-02-06T08:51:36.857Z,84.50
2019-02-06T08:54:05.125Z,84.00
2019-02-06T08:56:32.500Z,83.80
2019-02-06T08:58:59.958Z,83.50
2019-02-06T09:01:30.764Z,83.00
2019-02-06T09:04:31.481Z,82.90
2019-02-06T09:07:05.989Z,82.30
2019-02-06T09:09:33.742Z,82.20
2019-02-06T09:12:01.318Z,81.90
2019-02-06T09:14:28.790Z,82.20
2019-02-06T09:16:56.748Z,81.90
2019-02-06T09:19:24.223Z,81.80
2019-02-06T09:21:51.789Z,82.10
2019-02-06T09:24:20.404Z,82.20
2019-02-06T09:26:47.956Z,81.10
2019-02-06T09:29:15.323Z,81.30
2019-02-06T09:31:42.869Z,80.90
2019-02-06T09:34:10.684Z,80.50
2019-02-06T09:36:38.502Z,79.20
2019-02-06T09:39:11.727Z,79.20
2019-02-06T09:41:38.417Z,78.60
2019-02-06T09:44:05.905Z,77.30
2019-02-06T09:46:33.547Z,76.40
2019-02-06T09:49:01.045Z,73.40
2019-02-06T09:51:29.028Z,73.40
2019-02-06T09:53:56.459Z,73.20
2019-02-06T09:56:24.168Z,72.30
2019-02-06T09:58:51.533Z,70.60
2019-02-06T10:01:21.400Z,68.60
2019-02-06T10:03:48.390Z,67.90
2019-02-06T10:06:15.970Z,67.60
2019-02-06T10:08:43.379Z,66.10
2019-02-06T10:11:10.913Z,66.00
2019-02-06T10:13:38.392Z,64.80
2019-02-06T10:16:05.963Z,62.10
2019-02-06T10:18:33.443Z,62.50
2019-02-06T10:21:00.924Z,61.20
2019-02-06T10:23:28.288Z,59.80
2019-02-06T10:25:55.775Z,60.90
2019-02-06T10:28:24.403Z,61.30
2019-02-06T10:30:52.722Z,61.10
2019-02-06T10:33:20.738Z,60.10
2019-02-06T10:35:48.225Z,58.90
2019-02-06T10:38:15.954Z,57.40
2019-02-06T10:40:43.649Z,57.70
2019-02-06T10:43:11.343Z,57.10
2019-02-06T10:45:39.096Z,56.60
2019-02-06T10:48:09.034Z,55.00
2019-02-06T10:50:44.963Z,55.10
2019-02-06T10:53:13.583Z,54.50
2019-02-06T10:55:43.624Z,53.30
2019-02-06T10:58:11.974Z,52.90
2019-02-06T11:00:49.016Z,52.40
2019-02-06T11:03:17.353Z,53.00
2019-02-06T11:05:44.999Z,53.40
2019-02-06T11:08:12.493Z,53.00
2019-02-06T11:10:41.690Z,53.00
2019-02-06T11:13:09.532Z,52.90
2019-02-06T11:15:37.825Z,53.30
2019-02-06T11:18:05.939Z,53.20
2019-02-06T11:20:38.313Z,53.10
2019-02-06T11:23:08.704Z,52.80
2019-02-06T11:25:36.889Z,52.90
2019-02-06T11:28:07.131Z,52.20
2019-02-06T11:30:35.456Z,52.40
2019-02-06T11:33:04.210Z,51.80
2019-02-06T11:35:32.829Z,51.70
2019-02-06T11:38:00.932Z,51.00
2019-02-06T11:40:28.915Z,49.50
2019-02-06T11:42:56.517Z,48.60
2019-02-06T11:45:30.845Z,46.60
2019-02-06T11:48:07.205Z,44.80
2019-02-06T11:50:41.149Z,43.10
2019-02-06T11:53:28.511Z,42.80
2019-02-06T11:55:56.501Z,41.30
2019-02-06T11:58:25.049Z,38.90
2019-02-06T12:01:22.054Z,37.40
2019-02-06T12:03:53.517Z,37.50
2019-02-06T12:06:21.324Z,37.30
2019-02-06T12:08:52.488Z,37.30
2019-02-06T12:11:20.327Z,36.30
2019-02-06T12:13:48.642Z,36.10
2019-02-06T12:16:18.827Z,35.70
2019-02-06T12:18:48.258Z,34.80
2019-02-06T12:21:18.010Z,33.00
2019-02-06T12:23:45.698Z,31.00
2019-02-06T12:26:13.552Z,28.50
2019-02-06T12:28:41.257Z,26.70
2019-02-06T12:31:09.011Z,26.20
2019-02-06T12:33:36.833Z,26.70
2019-02-06T12:36:04.466Z,27.80
2019-02-06T12:38:32.038Z,28.80
2019-02-06T12:40:59.825Z,29.80
2019-02-06T12:43:27.387Z,30.80
2019-02-06T12:45:54.969Z,31.70
2019-02-06T12:48:22.416Z,31.40
2019-02-06T12:50:50.116Z,31.40
2019-02-06T12:53:17.595Z,31.90
2019-02-06T12:55:45.214Z,29.80
2019-02-06T12:58:13.021Z,27.00
2019-02-06T13:00:41.331Z,24.80
2019-02-06T13:03:10.920Z,23.50
2019-02-06T13:05:38.847Z,23.40
2019-02-06T13:08:06.995Z,22.70
2019-02-06T13:10:34.683Z,22.40
2019-02-06T13:13:04.445Z,21.90
2019-02-06T13:15:32.405Z,22.20
2019-02-06T13:18:00.216Z,22.40
2019-02-06T13:20:28.546Z,23.10
2019-02-06T13:22:56.453Z,23.40
2019-02-06T13:25:24.291Z,23.40
2019-02-06T13:27:51.974Z,22.70
2019-02-06T13:30:23.554Z,22.10
2019-02-06T13:32:51.466Z,21.90
2019-02-06T13:35:20.366Z,21.30
2019-02-06T13:37:48.129Z,21.00
2019-02-06T13:40:17.998Z,20.60
2019-02-06T13:42:45.587Z,20.50
2019-02-06T13:45:19.774Z,20.30
2019-02-06T13:47:47.959Z,20.40
2019-02-06T13:50:22.115Z,20.30
2019-02-06T13:52:45.400Z,19.80
2019-02-06T13:55:14.523Z,19.90
2019-02-06T13:57:43.158Z,19.90
2019-02-06T14:00:15.555Z,19.50
2019-02-06T14:02:44.198Z,19.30
2019-02-06T14:05:13.851Z,19.40
2019-02-06T14:07:43.331Z,19.50
2019-02-06T14:10:16.837Z,20.20
2019-02-06T14:12:49.284Z,20.70
2019-02-06T14:15:44.181Z,21.00
2019-02-06T14:18:17.076Z,21.20
2019-02-06T14:20:52.917Z,21.60
2019-02-06T14:23:39.634Z,21.70
2019-02-06T14:27:06.561Z,21.90
2019-02-06T14:30:21.432Z,22.10
2019-02-06T14:33:25.049Z,22.70
2019-02-06T14:36:37.505Z,23.30
2019-02-06T14:39:43.580Z,23.70
2019-02-06T14:43:07.853Z,23.90
2019-02-06T14:46:23.024Z,23.80
2019-02-06T14:49:25.859Z,24.10
2019-02-06T14:52:41.205Z,24.70
2019-02-06T14:56:04.878Z,25.60
2019-02-06T14:59:35.590Z,26.20
2019-02-06T15:02:53.432Z,27.90
2019-02-06T15:06:43.402Z,29.80
2019-02-06T15:10:02.269Z,31.70
2019-02-06T15:13:29.084Z,34.10
2019-02-06T15:17:00.328Z,36.00
2019-02-06T15:19:47.356Z,38.00
2019-02-06T15:23:20.870Z,40.10
2019-02-06T15:26:57.603Z,41.70
2019-02-06T15:30:27.729Z,42.90
2019-02-06T15:33:53.577Z,44.80
2019-02-06T15:37:04.164Z,46.20
2019-02-06T15:40:14.569Z,47.80
2019-02-06T15:43:47.449Z,48.80
2019-02-06T15:47:19.807Z,51.10
2019-02-06T15:50:26.882Z,51.60
2019-02-06T15:53:53.657Z,53.40
2019-02-06T15:57:21.522Z,54.80
2019-02-06T16:00:20.067Z,56.90
2019-02-06T16:03:01.938Z,58.40
2019-02-06T16:06:10.547Z,59.30
2019-02-06T16:09:28.444Z,61.20
2019-02-06T16:12:48.518Z,63.10
2019-02-06T16:15:54.259Z,64.80
2019-02-06T16:19:21.063Z,65.40
2019-02-06T16:22:45.742Z,66.50
2019-02-06T16:26:04.019Z,68.10
2019-02-06T16:29:41.250Z,69.90
2019-02-06T16:33:10.386Z,71.50
2019-02-06T16:36:35.626Z,72.90
2019-02-06T16:40:13.366Z,73.80
2019-02-06T16:43:37.370Z,75.70
2019-02-06T16:47:22.220Z,76.30
2019-02-06T16:50:36.778Z,77.20
2019-02-06T16:53:48.136Z,77.90
2019-02-06T16:56:40.870Z,78.00
2019-02-06T17:00:09.847Z,78.70
2019-02-06T17:03:18.652Z,79.40
2019-02-06T17:06:33.613Z,80.10
2019-02-06T17:09:52.306Z,82.20
2019-02-06T17:13:15.596Z,82.70
2019-02-06T17:16:45.965Z,83.00
2019-02-06T17:19:49.260Z,83.90
2019-02-06T17:22:58.419Z,83.60
2019-02-06T17:26:25.938Z,83.30
2019-02-06T17:30:05.279Z,83.70
2019-02-06T17:33:18.262Z,84.40
2019-02-06T17:36:49.314Z,86.10
2019-02-06T17:40:02.528Z,86.90
2019-02-06T17:43:25.755Z,87.80
2019-02-06T17:46:50.073Z,87.60
2019-02-06T17:50:18.478Z,88.20
2019-02-06T17:53:40.304Z,89.80
2019-02-06T17:56:07.960Z,90.80
2019-02-06T17:58:41.454Z,90.80
2019-02-06T18:01:41.936Z,91.00
2019-02-06T18:04:41.513Z,90.90
2019-02-06T18:07:09.931Z,91.00
2019-02-06T18:09:39.783Z,91.20
2019-02-06T18:12:09.574Z,91.10
2019-02-06T18:14:37.562Z,91.40
2019-02-06T18:17:07.950Z,91.50
2019-02-06T18:19:40.958Z,91.70
2019-02-06T18:22:10.619Z,91.80
2019-02-06T18:24:38.436Z,92.80
2019-02-06T18:27:06.708Z,92.00
2019-02-06T18:29:34.951Z,92.00
2019-02-06T18:32:03.522Z,91.90
2019-02-06T18:34:33.288Z,93.00
2019-02-06T18:37:01.450Z,92.10
2019-02-06T18:39:29.476Z,92.20
2019-02-06T18:41:57.815Z,92.20
2019-02-06T18:44:26.813Z,92.50
2019-02-06T18:46:58.551Z,92.40
2019-02-06T18:49:26.913Z,93.20
2019-02-06T18:51:55.240Z,92.60
2019-02-06T18:54:23.867Z,93.10
2019-02-06T18:56:52.120Z,92.60
2019-02-06T18:59:20.349Z,92.40
2019-02-06T19:01:48.216Z,92.50
2019-02-06T19:04:18.894Z,92.30
2019-02-06T19:06:46.833Z,92.60
2019-02-06T19:09:16.171Z,92.70
2019-02-06T19:11:44.228Z,92.60
2019-02-06T19:14:12.435Z,93.10
2019-02-06T19:16:40.490Z,92.90
2019-02-06T19:19:08.311Z,92.70
2019-02-06T19:21:36.137Z,92.90
2019-02-06T19:24:06.584Z,92.90
2019-02-06T19:26:34.385Z,92.90
2019-02-06T19:29:02.719Z,92.90
2019-02-06T19:31:30.885Z,93.00
2019-02-06T19:33:59.739Z,93.40
2019-02-06T19:36:28.069Z,93.00
2019-02-06T19:38:56.688Z,93.40
2019-02-06T19:41:26.717Z,93.60
2019-02-06T19:43:55.218Z,94.10
2019-02-06T19:46:23.705Z,94.30
2019-02-06T19:48:52.313Z,94.20
2019-02-06T19:51:21.191Z,94.20
2019-02-06T19:53:50.389Z,94.70
2019-02-06T19:56:20.301Z,94.40
2019-02-06T19:58:49.235Z,94.20
2019-02-06T20:01:19.647Z,94.00
2019-02-06T20:03:48.622Z,94.30
2019-02-06T20:06:30.078Z,94.20
2019-02-06T20:09:02.967Z,94.20
2019-02-06T20:11:33.583Z,94.00
2019-02-06T20:14:02.174Z,94.10
2019-02-06T20:16:32.559Z,94.30
2019-02-06T20:19:01.160Z,94.50
2019-02-06T20:21:29.655Z,94.50
2019-02-06T20:23:58.740Z,94.40
2019-02-06T20:26:27.294Z,94.30
2019-02-06T20:29:05.106Z,94.40
2019-02-06T20:31:37.326Z,94.40
2019-02-06T20:34:08.767Z,94.40
2019-02-06T20:36:39.370Z,94.30
2019-02-06T20:39:10.978Z,94.30
2019-02-06T20:41:42.935Z,94.30
2019-02-06T20:44:14.289Z,94.40
2019-02-06T20:46:42.633Z,94.50
2019-02-06T20:49:21.880Z,94.60
2019-02-06T20:51:54.185Z,94.40
2019-02-06T20:54:27.126Z,94.40
2019-02-06T20:56:55.199Z,94.40
2019-02-06T20:59:24.607Z,94.50
2019-02-06T21:01:53.091Z,94.70
2019-02-06T21:04:20.974Z,94.80
2019-02-06T21:06:57.991Z,94.90
2019-02-06T21:09:25.721Z,94.90
2019-02-06T21:11:53.475Z,94.90
2019-02-06T21:14:21.223Z,94.80
2019-02-06T21:16:48.793Z,94.80
2019-02-06T21:19:16.819Z,94.90
2019-02-06T21:21:44.448Z,95.10
2019-02-06T21:24:12.059Z,94.90
2019-02-06T21:26:40.226Z,94.80
2019-02-06T21:29:08.912Z,94.80
2019-02-06T21:34:55.613Z,94.80
2019-02-06T21:37:23.151Z,94.90
2019-02-06T21:39:50.769Z,94.90
2019-02-06T21:42:18.296Z,95.00
2019-02-06T21:44:46.225Z,95.00
2019-02-06T21:47:14.902Z,95.10
2019-02-06T21:49:42.465Z,95.10
2019-02-06T21:52:10.167Z,95.20
2019-02-06T21:54:37.697Z,95.20
2019-02-06T21:57:13.705Z,95.30
2019-02-06T21:59:45.196Z,95.50
2019-02-06T22:02:12.623Z,95.40
2019-02-06T22:04:40.641Z,95.40
2019-02-06T22:07:08.489Z,95.40
2019-02-06T22:09:36.302Z,95.40
2019-02-06T22:12:04.332Z,95.40
2019-02-06T22:14:31.922Z,95.60
2019-02-06T22:17:00.634Z,95.60
2019-02-06T22:19:28.308Z,95.60
2019-02-06T22:21:56.032Z,95.50
2019-02-06T22:24:23.616Z,95.50
2019-02-06T22:26:51.271Z,95.60
2019-02-06T22:29:19.084Z,95.60
2019-02-06T22:31:46.982Z,95.60
2019-02-06T22:34:15.366Z,95.50
2019-02-06T22:36:45.721Z,95.50
2019-02-06T22:39:14.348Z,95.50
2019-02-06T22:41:41.907Z,95.60
2019-02-06T22:44:09.559Z,95.50
2019-02-06T22:46:37.399Z,95.50
2019-02-06T22:49:05.085Z,95.40
2019-02-06T22:51:32.913Z,95.30
2019-02-06T22:54:00.607Z,95.40
2019-02-06T22:56:28.238Z,95.30
2019-02-06T22:58:55.770Z,95.30
2019-02-06T23:01:32.924Z,95.30
2019-02-06T23:04:00.512Z,95.40
2019-02-06T23:06:29.233Z,95.50
2019-02-06T23:08:56.893Z,95.70
2019-02-06T23:11:24.487Z,95.70
2019-02-06T23:13:52.046Z,95.70
2019-02-06T23:16:19.673Z,95.70
2019-02-06T23:18:48.281Z,95.60
2019-02-06T23:21:16.360Z,95.60
2019-02-06T23:23:44.021Z,95.40
2019-02-06T23:26:11.776Z,95.30
2019-02-06T23:28:39.476Z,95.20
2019-02-06T23:31:07.177Z,95.30
2019-02-06T23:33:34.794Z,95.30
2019-02-06T23:36:03.145Z,95.40
2019-02-06T23:38:31.214Z,95.50
2019-02-06T23:40:59.663Z,95.50
2019-02-06T23:43:27.366Z,95.70
2019-02-06T23:45:55.118Z,95.80
2019-02-06T23:48:22.790Z,95.60
2019-02-06T23:50:50.518Z,95.60
2019-02-06T23:53:18.276Z,95.50
2019-02-06T23:55:45.975Z,95.50
2019-02-06T23:58:13.401Z,95.40
